Time;durP1;ratioP1;P1;durP2;ratioP2;P2;SDS_P1;SDS_P2;PMS_P1;PMS_P2;Temp;Humidity;BMP_temperature;BMP_pressure;BME280_temperature;BME280_humidity;BME280_pressure;Samples;Min_cycle;Max_cycle;Signal;HPM_P1;HPM_P2
2023/07/10 00:02:13;;;;;;;61.63;27.65;;;;;;;18.29;100.00;101950.47;10413366;28;20047;-76
2023/07/10 00:07:13;;;;;;;54.78;27.25;;;;;;;18.31;100.00;101924.03;10409607;28;20110;-75
2023/07/10 00:12:16;;;;;;;53.17;24.40;;;;;;;18.30;100.00;101916.75;10439294;28;20064;-74
2023/07/10 00:17:17;;;;;;;52.95;26.00;;;;;;;18.24;100.00;101934.59;10432053;28;20093;-76
2023/07/10 00:22:18;;;;;;;53.00;23.20;;;;;;;18.24;100.00;101929.03;10428375;28;20049;-75
2023/07/10 00:27:19;;;;;;;47.72;23.50;;;;;;;18.13;100.00;101889.19;10428295;28;20096;-76
2023/07/10 00:32:20;;;;;;;48.90;23.27;;;;;;;18.19;100.00;101883.59;10389555;28;20060;-75
2023/07/10 00:37:21;;;;;;;49.28;22.55;;;;;;;18.11;100.00;101862.72;10442303;28;20037;-74
2023/07/10 00:42:24;;;;;;;49.35;25.02;;;;;;;18.18;100.00;101873.59;10437348;28;20063;-75
2023/07/10 00:47:31;;;;;;;46.97;22.98;;;;;;;18.16;100.00;101901.72;10449818;28;20099;-74
2023/07/10 00:52:41;;;;;;;48.72;22.50;;;;;;;18.17;100.00;101910.91;10392258;28;20040;-74
2023/07/10 00:57:43;;;;;;;47.53;23.95;;;;;;;18.13;100.00;101913.44;10435755;28;20120;-74
2023/07/10 01:02:43;;;;;;;51.88;23.73;;;;;;;18.09;100.00;101923.47;10414756;28;20037;-74
2023/07/10 01:07:56;;;;;;;51.83;24.33;;;;;;;18.12;100.00;101931.28;10430385;28;20033;-74
2023/07/10 01:12:56;;;;;;;51.08;23.92;;;;;;;18.07;100.00;101922.94;10437855;28;20033;-74
2023/07/10 01:17:58;;;;;;;48.33;23.70;;;;;;;18.08;100.00;101914.25;10409686;28;20074;-75
2023/07/10 01:23:00;;;;;;;44.33;23.73;;;;;;;18.04;100.00;101915.94;10420198;28;20037;-75
2023/07/10 01:28:02;;;;;;;44.90;22.15;;;;;;;17.97;100.00;101911.78;10409188;28;20114;-74
2023/07/10 01:33:02;;;;;;;44.22;21.00;;;;;;;17.89;100.00;101916.78;10394717;28;20067;-75
2023/07/10 01:38:03;;;;;;;36.35;18.67;;;;;;;17.85;100.00;101914.84;10408405;28;20101;-75
2023/07/10 01:43:03;;;;;;;39.78;18.75;;;;;;;17.79;100.00;101907.56;10411064;28;20041;-74
2023/07/10 01:48:04;;;;;;;30.23;18.52;;;;;;;17.63;100.00;101895.56;10437328;28;20040;-76
2023/07/10 01:53:07;;;;;;;43.65;22.10;;;;;;;17.63;100.00;101906.69;10382897;28;20033;-72
2023/07/10 01:58:08;;;;;;;38.83;21.58;;;;;;;17.61;100.00;101903.34;10428979;28;20083;-75
2023/07/10 02:03:08;;;;;;;44.90;23.60;;;;;;;17.54;100.00;101893.31;10427420;28;20039;-74
2023/07/10 02:08:09;;;;;;;57.10;26.83;;;;;;;17.54;100.00;101904.47;10409559;28;20040;-74
2023/07/10 02:13:09;;;;;;;59.58;28.42;;;;;;;17.59;100.00;101900.88;10384169;28;20026;-75
2023/07/10 02:18:10;;;;;;;66.00;30.02;;;;;;;17.66;100.00;101915.34;10402099;28;20064;-75
2023/07/10 02:23:12;;;;;;;67.10;31.52;;;;;;;17.67;100.00;101922.59;10406865;28;20083;-76
2023/07/10 02:28:12;;;;;;;67.13;30.95;;;;;;;17.54;100.00;101904.47;10390342;28;20123;-74
2023/07/10 02:33:13;;;;;;;65.60;30.83;;;;;;;17.47;100.00;101894.72;10372898;28;20045;-74
2023/07/10 02:38:13;;;;;;;75.43;32.70;;;;;;;17.21;100.00;101852.91;10379763;28;20041;-75
2023/07/10 02:43:14;;;;;;;65.40;30.75;;;;;;;17.49;100.00;101910.03;10397253;28;20500;-75
2023/07/10 02:48:14;;;;;;;66.20;32.40;;;;;;;17.46;100.00;101912.53;10428002;28;20037;-73
2023/07/10 02:53:15;;;;;;;67.70;32.63;;;;;;;17.16;100.00;101869.63;10413966;28;20037;-75
2023/07/10 02:58:15;;;;;;;69.40;32.95;;;;;;;17.34;100.00;101904.44;10414554;28;20060;-74
2023/07/10 03:03:16;;;;;;;57.40;29.85;;;;;;;17.40;100.00;101938.69;10420799;28;20116;-74
2023/07/10 03:08:16;;;;;;;59.13;29.08;;;;;;;17.36;100.00;101952.31;10394410;28;20036;-75
2023/07/10 03:13:17;;;;;;;59.55;30.00;;;;;;;17.32;100.00;101929.78;10428021;28;20058;-75
2023/07/10 03:18:19;;;;;;;52.03;27.67;;;;;;;17.37;100.00;101948.44;10413026;28;20048;-75
2023/07/10 03:23:20;;;;;;;58.97;28.85;;;;;;;17.32;100.00;101940.91;10407581;28;20040;-75
2023/07/10 03:28:21;;;;;;;65.50;28.67;;;;;;;17.30;100.00;101940.34;10386069;28;20056;-75
2023/07/10 03:33:22;;;;;;;58.08;28.50;;;;;;;17.33;100.00;101925.03;10406037;28;20045;-74
2023/07/10 03:38:22;;;;;;;55.65;28.90;;;;;;;17.30;100.00;101931.13;10394013;28;20042;-77
2023/07/10 03:43:23;;;;;;;48.92;28.83;;;;;;;17.28;100.00;101944.50;10413838;28;20471;-75
2023/07/10 03:48:23;;;;;;;53.72;28.73;;;;;;;17.25;100.00;101950.63;10363517;28;20053;-76
2023/07/10 03:53:27;;;;;;;45.72;24.33;;;;;;;17.22;100.00;101940.00;10405110;28;20076;-76
2023/07/10 03:58:29;;;;;;;48.75;23.95;;;;;;;17.18;100.00;101958.38;10404849;28;20032;-76
2023/07/10 04:03:34;;;;;;;42.33;22.25;;;;;;;17.09;100.00;101944.97;10394488;28;20036;-74
2023/07/10 04:08:37;;;;;;;40.20;20.23;;;;;;;17.11;100.00;101947.50;10404941;28;20033;-75
2023/07/10 04:13:38;;;;;;;32.75;17.98;;;;;;;17.08;100.00;101940.53;10437620;28;20025;-76
2023/07/10 04:18:39;;;;;;;27.98;16.00;;;;;;;17.07;100.00;101944.41;10402174;28;20102;-75
2023/07/10 04:23:40;;;;;;;30.40;18.42;;;;;;;17.14;100.00;101970.06;10420184;28;20047;-76
2023/07/10 04:28:40;;;;;;;38.15;18.60;;;;;;;17.25;100.00;101979.28;10400845;28;20041;-75
2023/07/10 04:33:41;;;;;;;28.17;17.27;;;;;;;17.35;100.00;101984.88;10422126;28;20041;-76
2023/07/10 04:38:41;;;;;;;33.58;17.80;;;;;;;17.45;100.00;101984.09;10421390;28;20408;-75
2023/07/10 04:43:42;;;;;;;29.33;17.17;;;;;;;17.57;100.00;101974.63;10391775;28;20402;-75
2023/07/10 04:48:48;;;;;;;27.92;16.77;;;;;;;17.64;100.00;101969.66;10442238;28;20054;-76
2023/07/10 04:53:49;;;;;;;26.25;16.63;;;;;;;17.58;100.00;101956.84;10418832;28;20082;-75
2023/07/10 04:58:49;;;;;;;30.27;16.15;;;;;;;17.59;100.00;101975.19;10384240;28;20052;-76
2023/07/10 05:03:50;;;;;;;29.88;15.38;;;;;;;17.61;100.00;101967.41;10436965;28;20041;-76
2023/07/10 05:08:55;;;;;;;29.85;15.90;;;;;;;17.62;100.00;101978.28;10443795;28;20079;-75
2023/07/10 05:13:55;;;;;;;29.05;17.60;;;;;;;17.66;100.00;101976.63;10445262;28;20036;-76
2023/07/10 05:18:56;;;;;;;29.25;16.83;;;;;;;17.63;100.00;101993.03;10417269;28;20096;-76
2023/07/10 05:23:57;;;;;;;27.08;16.30;;;;;;;17.65;100.00;101986.09;10443550;28;20041;-77
2023/07/10 05:28:57;;;;;;;24.20;15.15;;;;;;;17.66;100.00;101990.53;10409245;28;20044;-73
2023/07/10 05:33:58;;;;;;;22.70;14.77;;;;;;;17.60;100.00;101985.25;10387650;28;20072;-76
2023/07/10 05:38:58;;;;;;;23.70;15.15;;;;;;;17.59;100.00;101989.13;10403408;28;20048;-76
2023/07/10 05:43:59;;;;;;;29.13;16.77;;;;;;;17.72;100.00;101999.75;10370601;28;20068;-76
2023/07/10 05:48:59;;;;;;;25.65;16.02;;;;;;;17.48;100.00;101950.09;10419065;28;20033;-74
2023/07/10 05:53:59;;;;;;;29.17;15.90;;;;;;;17.75;100.00;102004.75;10415270;28;20037;-76
2023/07/10 05:59:01;;;;;;;19.67;13.15;;;;;;;17.70;100.00;102004.75;10460298;28;20045;-76
2023/07/10 06:04:01;;;;;;;21.85;13.63;;;;;;;17.63;100.00;101987.47;10443782;28;20048;-75
2023/07/10 06:09:02;;;;;;;19.00;12.75;;;;;;;17.80;100.00;101996.44;10443633;28;20520;-75
2023/07/10 06:14:02;;;;;;;19.20;10.05;;;;;;;17.87;100.00;101988.66;10409583;28;20486;-76
2023/07/10 06:19:03;;;;;;;14.32;10.30;;;;;;;18.01;100.00;101990.91;10418097;28;20060;-77
2023/07/10 06:24:04;;;;;;;17.83;9.60;;;;;;;18.15;100.00;101986.47;10393598;28;20048;-76
2023/07/10 06:29:04;;;;;;;13.68;9.05;;;;;;;18.14;100.00;101982.00;10408472;28;20060;-75
2023/07/10 06:34:05;;;;;;;10.27;8.45;;;;;;;18.20;100.00;101983.66;10439649;28;20037;-75
2023/07/10 06:39:05;;;;;;;14.63;8.25;;;;;;;18.31;100.00;101990.91;10440837;28;20033;-75
2023/07/10 06:44:06;;;;;;;12.82;7.20;;;;;;;18.35;100.00;101997.63;10440010;28;20033;-75
2023/07/10 06:49:06;;;;;;;11.52;7.43;;;;;;;18.50;100.00;102001.47;10423118;28;20049;-75
2023/07/10 06:54:08;;;;;;;10.52;6.43;;;;;;;18.47;100.00;101988.09;10421718;28;20040;-75
2023/07/10 06:59:08;;;;;;;10.27;6.75;;;;;;;18.57;100.00;101992.84;10403274;28;20051;-74
2023/07/10 07:04:09;;;;;;;11.15;6.57;;;;;;;18.68;100.00;101992.53;10455322;28;20041;-74
2023/07/10 07:09:09;;;;;;;10.85;5.97;;;;;;;19.07;100.00;101986.31;10397244;28;20488;-72
2023/07/10 07:14:10;;;;;;;7.93;5.65;;;;;;;19.26;100.00;101978.13;10430910;28;20477;-72
2023/07/10 07:19:10;;;;;;;11.57;5.10;;;;;;;19.27;100.00;101979.81;10422814;28;20053;-72
2023/07/10 07:24:11;;;;;;;12.80;4.55;;;;;;;19.25;100.00;101972.84;10456560;28;20029;-73
2023/07/10 07:29:11;;;;;;;9.48;3.80;;;;;;;19.31;100.00;101974.50;10427087;28;20061;-73
2023/07/10 07:34:12;;;;;;;9.32;4.20;;;;;;;19.11;100.00;101978.22;10432940;28;20037;-71
2023/07/10 07:39:15;;;;;;;10.27;4.53;;;;;;;19.08;100.00;101971.25;10401861;28;20098;-72
2023/07/10 07:44:15;;;;;;;12.25;4.82;;;;;;;19.37;100.00;101967.78;10419009;28;20136;-72
2023/07/10 07:49:16;;;;;;;6.43;2.97;;;;;;;19.70;100.00;101956.94;10419396;28;20060;-71
2023/07/10 07:54:16;;;;;;;4.93;3.03;;;;;;;19.93;100.00;101952.63;10434843;28;20033;-71
2023/07/10 07:59:18;;;;;;;4.28;2.80;;;;;;;19.99;100.00;101948.66;10402359;28;20052;-70
2023/07/10 08:04:18;;;;;;;5.00;1.92;;;;;;;20.00;100.00;101946.69;10380320;28;20034;-70
2023/07/10 08:09:19;;;;;;;6.80;2.33;;;;;;;20.09;100.00;101944.94;10397418;28;20093;-71
2023/07/10 08:14:19;;;;;;;5.50;2.30;;;;;;;20.25;100.00;101946.47;10380534;28;20034;-69
2023/07/10 08:19:20;;;;;;;5.70;2.47;;;;;;;20.35;100.00;101943.56;10414330;28;20053;-68
2023/07/10 08:24:21;;;;;;;4.75;2.65;;;;;;;20.57;100.00;101950.66;10348065;28;20040;-70
2023/07/10 08:29:31;;;;;;;16.55;3.20;;;;;;;20.89;100.00;101938.81;10428050;28;20036;-70
2023/07/10 08:34:32;;;;;;;6.07;2.38;;;;;;;21.27;100.00;101930.50;10419432;28;20040;-68
2023/07/10 08:39:32;;;;;;;4.63;1.98;;;;;;;21.49;100.00;101929.09;10457733;28;20142;-69
2023/07/10 08:44:36;;;;;;;7.15;2.47;;;;;;;21.94;100.00;101927.53;10463840;28;20029;-69
2023/07/10 08:49:38;;;;;;;7.15;2.30;;;;;;;22.11;100.00;101931.75;10428171;28;20028;-69
2023/07/10 08:54:39;;;;;;;6.57;2.72;;;;;;;21.95;100.00;101929.22;10393430;28;20033;-69
2023/07/10 08:59:42;;;;;;;8.02;2.55;;;;;;;21.87;100.00;101938.31;10424764;28;20496;-68
2023/07/10 09:04:43;;;;;;;9.02;2.80;;;;;;;22.06;100.00;101945.88;10443662;28;20057;-69
2023/07/10 09:09:54;;;;;;;7.85;1.92;;;;;;;22.22;100.00;101927.63;10443342;28;20086;-69
2023/07/10 09:14:57;;;;;;;4.30;1.92;;;;;;;22.36;100.00;101908.84;10390739;28;20037;-68
2023/07/10 09:20:00;;;;;;;7.03;1.83;;;;;;;22.58;100.00;101918.56;10380104;28;20045;-69
2023/07/10 09:25:01;;;;;;;5.65;1.55;;;;;;;22.64;100.00;101942.59;10399987;28;20051;-68
2023/07/10 09:30:01;;;;;;;6.25;1.50;;;;;;;22.89;100.00;101944.03;10421214;28;20478;-68
2023/07/10 09:35:02;;;;;;;5.65;1.40;;;;;;;22.99;100.00;101934.59;10402927;28;20049;-69
2023/07/10 09:40:35;;;;;;;4.45;1.05;;;;;;;23.16;100.00;101929.19;10410849;28;20048;-69
2023/07/10 09:45:39;;;;;;;4.85;1.40;;;;;;;23.08;100.00;101882.16;10365939;28;20033;-68
2023/07/10 09:50:39;;;;;;;3.97;1.48;;;;;;;23.34;100.00;101924.56;10419233;28;20049;-68
2023/07/10 09:55:43;;;;;;;5.80;1.30;;;;;;;23.23;100.00;101945.59;10400853;28;20030;-69
2023/07/10 10:00:44;;;;;;;4.85;2.40;;;;;;;23.38;100.00;101924.78;10400793;28;20041;-69
2023/07/10 10:05:46;;;;;;;5.35;1.00;;;;;;;23.57;100.00;101936.69;10384604;28;20409;-69
2023/07/10 10:10:59;;;;;;;4.57;1.45;;;;;;;23.59;100.00;101925.13;10384386;28;20030;-74
2023/07/10 10:16:13;;;;;;;5.15;2.20;;;;;;;24.01;100.00;101916.53;10384949;28;20041;-68
2023/07/10 10:21:16;;;;;;;9.55;1.45;;;;;;;24.61;100.00;101926.50;10426377;28;20130;-69
2023/07/10 10:26:40;;;;;;;5.22;1.30;;;;;;;24.67;100.00;101917.59;10423819;28;20743;-68
2023/07/10 10:31:46;;;;;;;7.70;1.73;;;;;;;24.77;100.00;101897.56;10421068;28;20067;-69
2023/07/10 10:37:14;;;;;;;4.88;1.17;;;;;;;24.51;100.00;101905.91;10409248;28;20037;-69
2023/07/10 10:42:24;;;;;;;4.32;1.38;;;;;;;24.46;100.00;101905.22;10437706;28;20033;-68
2023/07/10 10:47:39;;;;;;;5.78;1.33;;;;;;;24.10;100.00;101908.97;10418410;28;20033;-68
2023/07/10 10:52:52;;;;;;;9.13;1.80;;;;;;;24.42;100.00;101912.66;10396799;28;20087;-69
2023/07/10 10:58:06;;;;;;;5.95;1.50;;;;;;;24.84;100.00;101907.53;10455357;28;20049;-68
2023/07/10 11:03:39;;;;;;;4.20;1.55;;;;;;;24.51;100.00;101917.16;10454442;28;20037;-69
2023/07/10 11:08:42;;;;;;;9.82;1.88;;;;;;;25.01;100.00;101918.84;10455717;28;20044;-69
2023/07/10 11:13:43;;;;;;;4.88;1.33;;;;;;;25.01;100.00;101907.56;10391373;28;20029;-68
2023/07/10 11:18:44;;;;;;;3.55;1.80;;;;;;;25.44;100.00;101908.84;10405068;28;20045;-68
2023/07/10 11:23:46;;;;;;;7.72;2.08;;;;;;;25.00;100.00;101917.19;10423515;28;20044;-68
2023/07/10 11:28:57;;;;;;;4.28;1.20;;;;;;;24.70;100.00;101919.75;10413663;28;20399;-70
2023/07/10 11:34:07;;;;;;;5.18;1.55;;;;;;;24.84;100.00;101911.16;10383218;28;20033;-69
2023/07/10 11:39:10;;;;;;;9.00;1.38;;;;;;;25.05;100.00;101914.22;10438682;28;20045;-68
2023/07/10 11:44:11;;;;;;;4.65;1.25;;;;;;;25.13;100.00;101913.41;10444264;28;20052;-69
2023/07/10 11:49:15;;;;;;;6.20;1.38;;;;;;;24.72;100.00;101925.91;10423745;28;20114;-69
2023/07/10 11:54:33;;;;;;;4.63;1.50;;;;;;;24.48;100.00;101928.25;10417992;28;20390;-69
2023/07/10 11:59:53;;;;;;;5.25;1.17;;;;;;;24.44;100.00;101927.22;10436364;28;20044;-68
2023/07/10 12:04:53;;;;;;;5.95;1.65;;;;;;;25.25;100.00;101924.06;10438825;28;20044;-68
2023/07/10 12:09:57;;;;;;;2.80;1.02;;;;;;;26.31;93.70;101874.88;10437284;28;20033;-68
2023/07/10 12:15:00;;;;;;;9.60;1.85;;;;;;;26.80;91.89;101908.41;10387624;28;20047;-68
2023/07/10 12:20:02;;;;;;;4.18;1.33;;;;;;;26.09;92.20;101912.63;10419081;28;20048;-67
2023/07/10 12:25:04;;;;;;;2.97;1.10;;;;;;;25.64;93.54;101908.19;10414682;28;20053;-68
2023/07/10 12:30:16;;;;;;;6.95;1.38;;;;;;;25.33;96.73;101916.78;10394877;28;20045;-67
2023/07/10 12:35:36;;;;;;;6.45;1.25;;;;;;;25.49;92.44;101923.59;10396355;28;20034;-68
2023/07/10 12:40:38;;;;;;;5.22;1.00;;;;;;;26.27;90.16;101919.88;10378483;28;20401;-67
2023/07/10 12:45:39;;;;;;;7.68;1.10;;;;;;;25.90;90.59;101930.75;10379159;28;20067;-68
2023/07/10 12:50:45;;;;;;;5.72;1.70;;;;;;;25.68;95.31;101947.81;10412029;28;20072;-67
2023/07/10 12:55:53;;;;;;;5.80;1.05;;;;;;;25.94;95.73;101951.50;10379575;28;20034;-66
2023/07/10 13:01:27;;;;;;;4.70;1.25;;;;;;;26.45;93.63;101945.25;10396471;28;20450;-67
2023/07/10 13:06:27;;;;;;;4.03;1.10;;;;;;;27.11;89.66;101931.50;10403053;28;20045;-67
2023/07/10 13:11:28;;;;;;;5.80;1.75;;;;;;;26.39;90.91;101941.78;10402592;28;20033;-67
2023/07/10 13:16:29;;;;;;;7.50;1.48;;;;;;;27.35;86.43;101942.19;10403792;28;20033;-67
2023/07/10 13:21:29;;;;;;;4.57;1.10;;;;;;;28.28;81.76;101919.41;10404344;28;20064;-67
2023/07/10 13:26:30;;;;;;;5.90;0.90;;;;;;;29.04;78.49;101917.09;10409479;28;20500;-67
2023/07/10 13:31:31;;;;;;;2.03;0.80;;;;;;;29.00;73.94;101918.97;10442903;28;20041;-69
2023/07/10 13:36:32;;;;;;;5.43;1.38;;;;;;;29.45;69.56;101911.50;10441744;28;20039;-70
2023/07/10 13:41:33;;;;;;;3.70;1.15;;;;;;;29.62;72.89;101921.72;10426511;28;20037;-69
2023/07/10 13:46:35;;;;;;;4.93;0.95;;;;;;;27.69;75.22;101930.94;10427060;28;20033;-69
2023/07/10 13:51:38;;;;;;;4.45;1.05;;;;;;;26.82;77.82;101942.81;10394966;28;20033;-69
2023/07/10 13:56:41;;;;;;;3.88;1.20;;;;;;;27.95;76.21;101937.22;10406350;28;20045;-69
2023/07/10 14:01:41;;;;;;;4.38;0.93;;;;;;;28.76;68.97;101922.66;10411259;28;20041;-68
2023/07/10 14:06:45;;;;;;;3.95;0.77;;;;;;;29.62;69.44;101921.72;10423792;28;20033;-67
2023/07/10 14:11:46;;;;;;;4.32;0.80;;;;;;;28.90;66.45;101919.47;10425500;28;20093;-67
2023/07/10 14:16:46;;;;;;;3.85;1.00;;;;;;;28.55;67.38;101914.28;10442689;28;20029;-69
2023/07/10 14:21:47;;;;;;;2.80;1.02;;;;;;;28.37;67.06;101910.78;10402753;28;20053;-69
2023/07/10 14:26:49;;;;;;;6.38;0.88;;;;;;;28.68;62.28;101896.09;10384322;28;20044;-68
2023/07/10 14:31:51;;;;;;;5.35;0.95;;;;;;;29.44;64.59;101905.00;10401869;28;20046;-69
2023/07/10 14:36:52;;;;;;;4.72;1.02;;;;;;;29.97;63.02;101891.59;10402926;28;20041;-67
2023/07/10 14:41:52;;;;;;;7.97;0.90;;;;;;;30.57;62.83;101899.25;10377986;28;20045;-68
2023/07/10 14:46:53;;;;;;;2.58;0.80;;;;;;;30.23;59.85;101890.22;10355941;28;20057;-67
2023/07/10 14:51:53;;;;;;;3.20;0.70;;;;;;;30.46;58.77;101895.31;10360944;28;20048;-68
2023/07/10 14:56:56;;;;;;;2.08;0.50;;;;;;;30.66;57.99;101884.88;10381503;28;20042;-68
2023/07/10 15:01:57;;;;;;;3.10;0.63;;;;;;;30.89;58.28;101880.16;10416443;28;20513;-68
2023/07/10 15:06:57;;;;;;;2.38;0.63;;;;;;;30.86;59.02;101895.09;10417145;28;20029;-67
2023/07/10 15:11:58;;;;;;;5.30;0.65;;;;;;;31.07;59.13;101889.13;10400050;28;20036;-68
2023/07/10 15:16:58;;;;;;;2.95;0.60;;;;;;;31.30;55.94;101868.50;10419559;28;20049;-67
2023/07/10 15:21:59;;;;;;;3.80;0.70;;;;;;;31.30;55.76;101866.47;10441761;28;20062;-68
2023/07/10 15:26:59;;;;;;;1.75;0.52;;;;;;;29.70;56.78;101861.16;10443515;28;20088;-68
2023/07/10 15:32:05;;;;;;;3.53;0.70;;;;;;;29.55;58.22;101855.06;10414374;28;20037;-67
2023/07/10 15:37:06;;;;;;;1.60;0.68;;;;;;;30.13;56.41;101845.34;10415897;28;20401;-67
2023/07/10 15:42:07;;;;;;;3.00;0.70;;;;;;;30.51;55.76;101832.50;10410456;28;20045;-67
2023/07/10 15:47:17;;;;;;;5.13;0.90;;;;;;;30.29;55.71;101846.19;10400097;28;20053;-68
2023/07/10 15:52:20;;;;;;;4.43;1.02;;;;;;;30.93;53.99;101840.47;10415885;28;20033;-67
2023/07/10 15:57:20;;;;;;;4.05;0.88;;;;;;;31.17;50.88;101836.50;10408996;28;20051;-67
2023/07/10 16:02:27;;;;;;;1.95;0.50;;;;;;;30.83;49.85;101826.78;10442715;28;20094;-68
2023/07/10 16:07:27;;;;;;;3.20;0.90;;;;;;;30.90;49.99;101815.59;10410099;28;20045;-67
2023/07/10 16:12:28;;;;;;;2.97;0.60;;;;;;;31.21;50.80;101836.59;10448039;28;20055;-67
2023/07/10 16:17:28;;;;;;;1.38;0.43;;;;;;;32.10;51.98;101841.28;10427391;28;20037;-67
2023/07/10 16:22:28;;;;;;;2.45;0.73;;;;;;;31.90;49.17;101822.56;10415439;28;20360;-68
2023/07/10 16:27:29;;;;;;;3.42;0.65;;;;;;;31.53;48.84;101823.06;10431870;28;20045;-69
2023/07/10 16:32:29;;;;;;;4.80;0.80;;;;;;;31.82;49.31;101818.75;10430866;28;20057;-68
2023/07/10 16:37:30;;;;;;;1.90;0.43;;;;;;;31.71;49.64;101814.88;10430363;28;20039;-68
2023/07/10 16:42:30;;;;;;;4.88;0.85;;;;;;;31.68;49.91;101813.59;10389685;28;20058;-77
2023/07/10 16:47:31;;;;;;;2.72;0.60;;;;;;;30.57;50.26;101819.66;10410861;28;20099;-74
2023/07/10 16:52:31;;;;;;;1.40;0.40;;;;;;;30.23;51.62;101810.72;10429261;28;20048;-74
2023/07/10 16:57:32;;;;;;;1.40;0.50;;;;;;;29.16;50.51;101805.69;10393032;28;20068;-76
2023/07/10 17:02:32;;;;;;;0.82;0.25;;;;;;;27.76;51.07;101815.19;10421208;28;20052;-80
2023/07/10 17:07:33;;;;;;;1.35;0.50;;;;;;;26.33;50.35;101768.91;10453534;28;20120;-78
2023/07/10 17:12:35;;;;;;;3.95;0.80;;;;;;;25.91;52.19;101799.00;10462915;28;20044;-76
2023/07/10 17:17:36;;;;;;;1.02;0.32;;;;;;;25.43;53.85;101805.72;10427548;28;20116;-76
2023/07/10 17:22:36;;;;;;;1.67;0.45;;;;;;;25.11;55.24;101805.00;10462158;28;20867;-80
2023/07/10 17:27:36;;;;;;;3.03;0.85;;;;;;;25.08;55.52;101806.50;10426911;28;20044;-78
2023/07/10 17:32:37;;;;;;;11.07;1.15;;;;;;;24.87;54.90;101828.03;10461141;28;20126;-78
2023/07/10 17:37:37;;;;;;;1.65;0.45;;;;;;;24.57;57.11;101834.22;10408977;28;20040;-72
2023/07/10 17:42:38;;;;;;;4.45;0.55;;;;;;;24.15;57.37;101816.00;10443058;28;20159;-73
2023/07/10 17:47:38;;;;;;;2.42;0.55;;;;;;;23.95;56.45;101818.22;10432044;28;20038;-83
2023/07/10 17:52:39;;;;;;;1.60;0.50;;;;;;;23.70;58.61;101818.88;10393939;28;20040;-72
2023/07/10 17:57:39;;;;;;;2.33;0.57;;;;;;;23.53;58.96;101822.41;10383718;28;20065;-71
2023/07/10 18:02:42;;;;;;;6.10;0.70;;;;;;;23.36;59.80;101825.91;10401038;28;20037;-70
2023/07/10 18:07:43;;;;;;;4.88;0.60;;;;;;;23.10;60.41;101818.09;10385226;28;20793;-70
2023/07/10 18:12:43;;;;;;;1.83;0.40;;;;;;;22.95;62.78;101826.84;10399370;28;20064;-71
2023/07/10 18:17:44;;;;;;;3.05;0.60;;;;;;;22.71;65.85;101844.75;10413903;28;20041;-70
2023/07/10 18:22:44;;;;;;;1.48;0.40;;;;;;;22.52;65.80;101824.41;10400246;28;20509;-70
2023/07/10 18:27:45;;;;;;;2.15;0.43;;;;;;;22.40;66.11;101827.72;10405572;28;20072;-68
2023/07/10 18:32:46;;;;;;;2.90;0.60;;;;;;;22.29;66.76;101823.47;10400232;28;20103;-70
2023/07/10 18:37:47;;;;;;;5.25;0.70;;;;;;;22.22;70.31;101837.88;10415215;28;20034;-78
2023/07/10 18:42:48;;;;;;;3.17;0.65;;;;;;;22.01;71.57;101839.38;10382837;28;20128;-71
2023/07/10 18:47:48;;;;;;;4.15;0.90;;;;;;;21.94;71.05;101832.22;10403969;28;20037;-81
2023/07/10 18:52:49;;;;;;;2.47;0.65;;;;;;;21.84;74.10;101843.59;10382549;28;20224;-71
2023/07/10 18:57:49;;;;;;;5.10;1.20;;;;;;;21.77;72.97;101815.16;10381060;28;20045;-72
2023/07/10 19:02:50;;;;;;;2.38;0.95;;;;;;;21.75;74.13;101829.47;10397538;28;20045;-75
2023/07/10 19:07:50;;;;;;;7.20;1.10;;;;;;;21.66;74.74;101830.47;10396816;28;20060;-66
2023/07/10 19:12:51;;;;;;;3.08;0.95;;;;;;;21.42;75.16;101823.03;10382213;28;20037;-68
2023/07/10 19:17:52;;;;;;;2.85;1.10;;;;;;;21.23;77.67;101820.22;10408693;28;20068;-68
2023/07/10 19:22:53;;;;;;;2.05;0.70;;;;;;;20.97;81.28;101836.56;10379406;28;20096;-73
2023/07/10 19:27:53;;;;;;;4.75;1.08;;;;;;;20.70;82.01;101838.03;10415055;28;20743;-70
2023/07/10 19:32:54;;;;;;;7.47;1.00;;;;;;;20.49;83.55;101826.22;10413295;28;20068;-73
2023/07/10 19:37:54;;;;;;;5.30;1.00;;;;;;;20.38;85.69;101840.63;10399504;28;20512;-70
2023/07/10 19:42:55;;;;;;;7.95;1.35;;;;;;;20.19;86.78;101832.19;10382376;28;20099;-76
2023/07/10 19:47:55;;;;;;;4.97;1.02;;;;;;;19.82;87.65;101795.38;10386127;28;20048;-69
2023/07/10 19:52:56;;;;;;;4.88;1.00;;;;;;;19.96;89.50;101840.25;10395898;28;20112;-67
2023/07/10 19:57:56;;;;;;;3.78;1.23;;;;;;;19.80;93.25;101842.31;10393577;28;20068;-66
2023/07/10 20:02:57;;;;;;;6.15;1.30;;;;;;;19.59;100.00;101830.47;10407938;28;20093;-67
2023/07/10 20:07:59;;;;;;;5.07;1.48;;;;;;;19.27;100.00;101822.66;10409512;28;20904;-66
2023/07/10 20:12:59;;;;;;;7.40;1.10;;;;;;;19.06;100.00;101827.50;10437080;28;20060;-67
2023/07/10 20:18:00;;;;;;;5.55;1.38;;;;;;;18.83;100.00;101826.25;10422784;28;20029;-67
2023/07/10 20:23:00;;;;;;;4.18;1.27;;;;;;;18.62;100.00;101822.69;10395109;28;20076;-67
2023/07/10 20:28:01;;;;;;;6.35;1.42;;;;;;;18.38;100.00;101814.16;10407792;28;20044;-67
2023/07/10 20:33:01;;;;;;;6.53;1.20;;;;;;;18.23;100.00;101804.72;10401080;28;20068;-66
2023/07/10 20:38:02;;;;;;;6.95;1.25;;;;;;;18.10;100.00;101816.47;10398861;28;20065;-67
2023/07/10 20:43:12;;;;;;;9.65;2.03;;;;;;;17.93;100.00;101812.03;10380537;28;20325;-67
2023/07/10 20:48:25;;;;;;;3.35;0.60;;;;;;;17.81;100.00;101797.53;10405816;28;20038;-67
2023/07/10 20:53:26;;;;;;;3.28;0.68;;;;;;;17.69;100.00;101803.41;10377333;28;20053;-67
2023/07/10 20:58:27;;;;;;;5.47;0.82;;;;;;;17.58;100.00;101806.47;10393593;28;20048;-66
2023/07/10 21:03:28;;;;;;;6.63;1.10;;;;;;;17.45;100.00;101797.56;10370026;28;20080;-66
2023/07/10 21:08:30;;;;;;;4.28;1.25;;;;;;;17.28;100.00;101803.41;10393906;28;20091;-66
2023/07/10 21:13:31;;;;;;;5.60;0.90;;;;;;;17.20;100.00;101809.53;10391825;28;20069;-67
2023/07/10 21:18:31;;;;;;;4.38;0.80;;;;;;;17.10;100.00;101801.16;10423622;28;20041;-66
2023/07/10 21:23:33;;;;;;;4.53;1.00;;;;;;;17.00;100.00;101798.34;10410573;28;20046;-66
2023/07/10 21:28:37;;;;;;;5.15;1.10;;;;;;;16.97;100.00;101794.19;10393531;28;20049;-66
2023/07/10 21:33:37;;;;;;;2.65;0.90;;;;;;;16.91;100.00;101789.72;10403303;28;20100;-66
2023/07/10 21:38:38;;;;;;;9.07;1.17;;;;;;;16.87;100.00;101802.50;10435106;28;20037;-66
2023/07/10 21:43:38;;;;;;;6.35;1.98;;;;;;;16.85;100.00;101790.81;10417982;28;20036;-66
2023/07/10 21:48:39;;;;;;;7.05;1.08;;;;;;;16.85;100.00;101785.25;10440369;28;20033;-66
2023/07/10 21:53:40;;;;;;;5.18;1.52;;;;;;;16.83;100.00;101777.19;10420873;28;20037;-66
2023/07/10 21:58:40;;;;;;;3.50;1.30;;;;;;;16.77;100.00;101788.53;10407942;28;20041;-67
2023/07/10 22:03:41;;;;;;;4.57;1.60;;;;;;;16.69;100.00;101787.94;10391366;28;20052;-66
2023/07/10 22:08:41;;;;;;;3.25;1.00;;;;;;;16.65;100.00;101772.91;10423891;28;20089;-65
2023/07/10 22:13:42;;;;;;;3.33;0.80;;;;;;;16.56;100.00;101777.34;10395532;28;20037;-66
2023/07/10 22:18:45;;;;;;;4.47;0.90;;;;;;;16.49;100.00;101779.53;10406908;28;20054;-66
2023/07/10 22:23:46;;;;;;;5.97;1.95;;;;;;;16.41;100.00;101780.06;10458094;28;20029;-67
2023/07/10 22:28:46;;;;;;;2.47;1.65;;;;;;;16.41;100.00;101785.63;10457542;28;20033;-66
2023/07/10 22:33:47;;;;;;;5.10;1.10;;;;;;;16.36;100.00;101785.59;10425332;28;20116;-66
2023/07/10 22:38:48;;;;;;;2.70;1.02;;;;;;;16.36;100.00;101780.06;10416735;28;20113;-66
2023/07/10 22:43:50;;;;;;;1.88;1.17;;;;;;;16.34;100.00;101785.88;10420684;28;20041;-66
2023/07/10 22:48:51;;;;;;;2.53;1.13;;;;;;;16.30;100.00;101780.00;10406535;28;20041;-67